sensor_id;sensor_type;location;lat;lon;timestamp;pressure;altitude;pressure_sealevel;temperature;humidity
76086;BME280;64791;0.000;0.000;2023-07-29T00:01:08;93676.59;;;17.49;48.70
76086;BME280;64791;0.000;0.000;2023-07-29T00:03:34;93688.31;;;17.68;47.90
76086;BME280;64791;0.000;0.000;2023-07-29T00:05:59;93689.50;;;17.65;47.85
76086;BME280;64791;0.000;0.000;2023-07-29T00:08:25;93691.88;;;17.80;47.58
76086;BME280;64791;0.000;0.000;2023-07-29T00:10:50;93693.19;;;18.00;47.95
76086;BME280;64791;0.000;0.000;2023-07-29T00:13:16;93691.53;;;17.86;47.47
76086;BME280;64791;0.000;0.000;2023-07-29T00:15:41;93694.03;;;17.70;47.87
76086;BME280;64791;0.000;0.000;2023-07-29T00:18:07;93693.75;;;17.66;47.86
76086;BME280;64791;0.000;0.000;2023-07-29T00:20:33;93688.16;;;17.87;48.75
76086;BME280;64791;0.000;0.000;2023-07-29T00:22:58;93693.38;;;17.93;47.84
76086;BME280;64791;0.000;0.000;2023-07-29T00:25:24;93697.72;;;17.84;47.82
76086;BME280;64791;0.000;0.000;2023-07-29T00:27:50;93694.72;;;17.59;48.42
76086;BME280;64791;0.000;0.000;2023-07-29T00:30:16;93688.31;;;17.47;48.66
76086;BME280;64791;0.000;0.000;2023-07-29T00:32:41;93687.91;;;17.20;49.45
76086;BME280;64791;0.000;0.000;2023-07-29T00:35:07;93699.94;;;17.44;49.49
76086;BME280;64791;0.000;0.000;2023-07-29T00:37:33;93690.56;;;17.18;49.34
76086;BME280;64791;0.000;0.000;2023-07-29T00:39:58;93692.75;;;17.19;49.49
76086;BME280;64791;0.000;0.000;2023-07-29T00:42:24;93689.38;;;17.21;49.93
76086;BME280;64791;0.000;0.000;2023-07-29T00:44:49;93694.09;;;17.18;49.92
76086;BME280;64791;0.000;0.000;2023-07-29T00:47:15;93687.81;;;17.08;50.64
76086;BME280;64791;0.000;0.000;2023-07-29T00:49:42;93690.38;;;16.74;51.04
76086;BME280;64791;0.000;0.000;2023-07-29T00:52:08;93688.53;;;16.57;51.28
76086;BME280;64791;0.000;0.000;2023-07-29T00:54:37;93680.66;;;16.84;50.53
76086;BME280;64791;0.000;0.000;2023-07-29T00:57:03;93675.91;;;16.87;50.73
76086;BME280;64791;0.000;0.000;2023-07-29T00:59:28;93678.13;;;16.57;51.45
76086;BME280;64791;0.000;0.000;2023-07-29T01:01:57;93683.72;;;16.48;52.17
76086;BME280;64791;0.000;0.000;2023-07-29T01:04:23;93678.63;;;16.35;52.03
76086;BME280;64791;0.000;0.000;2023-07-29T01:07:11;93682.25;;;16.56;51.79
76086;BME280;64791;0.000;0.000;2023-07-29T01:12:42;93675.75;;;16.63;51.45
76086;BME280;64791;0.000;0.000;2023-07-29T01:15:16;93676.91;;;16.70;52.03
76086;BME280;64791;0.000;0.000;2023-07-29T01:17:52;93676.91;;;16.70;51.71
76086;BME280;64791;0.000;0.000;2023-07-29T01:20:18;93678.00;;;16.55;52.08
76086;BME280;64791;0.000;0.000;2023-07-29T01:22:45;93671.81;;;16.57;52.30
76086;BME280;64791;0.000;0.000;2023-07-29T01:25:12;93668.22;;;16.35;53.41
76086;BME280;64791;0.000;0.000;2023-07-29T01:27:39;93670.69;;;16.50;53.11
76086;BME280;64791;0.000;0.000;2023-07-29T01:30:05;93681.66;;;16.48;53.11
76086;BME280;64791;0.000;0.000;2023-07-29T01:32:39;93688.03;;;16.70;52.67
76086;BME280;64791;0.000;0.000;2023-07-29T01:35:10;93680.75;;;16.65;53.18
76086;BME280;64791;0.000;0.000;2023-07-29T01:37:39;93686.63;;;16.59;52.68
76086;BME280;64791;0.000;0.000;2023-07-29T01:40:06;93676.38;;;16.52;52.75
76086;BME280;64791;0.000;0.000;2023-07-29T01:42:34;93676.38;;;16.52;52.87
76086;BME280;64791;0.000;0.000;2023-07-29T01:44:59;93681.25;;;16.52;53.50
76086;BME280;64791;0.000;0.000;2023-07-29T01:47:25;93680.00;;;16.15;53.48
76086;BME280;64791;0.000;0.000;2023-07-29T01:49:53;93670.50;;;15.99;54.19
76086;BME280;64791;0.000;0.000;2023-07-29T01:52:19;93676.53;;;15.95;54.47
76086;BME280;64791;0.000;0.000;2023-07-29T01:54:45;93668.78;;;15.84;54.88
76086;BME280;64791;0.000;0.000;2023-07-29T01:57:10;93677.00;;;15.82;54.85
76086;BME280;64791;0.000;0.000;2023-07-29T01:59:36;93666.59;;;15.73;55.18
76086;BME280;64791;0.000;0.000;2023-07-29T02:02:02;93675.53;;;15.71;55.41
76086;BME280;64791;0.000;0.000;2023-07-29T02:04:28;93674.53;;;15.67;55.20
76086;BME280;64791;0.000;0.000;2023-07-29T02:06:53;93672.06;;;15.61;55.46
76086;BME280;64791;0.000;0.000;2023-07-29T02:09:20;93683.59;;;15.58;55.89
76086;BME280;64791;0.000;0.000;2023-07-29T02:11:46;93684.50;;;15.51;55.52
76086;BME280;64791;0.000;0.000;2023-07-29T02:14:11;93675.41;;;15.50;56.09
76086;BME280;64791;0.000;0.000;2023-07-29T02:16:37;93678.75;;;15.39;55.95
76086;BME280;64791;0.000;0.000;2023-07-29T02:19:04;93684.31;;;15.49;56.44
76086;BME280;64791;0.000;0.000;2023-07-29T02:21:30;93683.59;;;15.58;56.06
76086;BME280;64791;0.000;0.000;2023-07-29T02:23:55;93687.66;;;15.47;56.06
76086;BME280;64791;0.000;0.000;2023-07-29T02:26:21;93682.97;;;15.88;56.12
76086;BME280;64791;0.000;0.000;2023-07-29T02:28:47;93685.22;;;15.70;55.76
76086;BME280;64791;0.000;0.000;2023-07-29T02:31:23;93682.56;;;15.63;55.54
76086;BME280;64791;0.000;0.000;2023-07-29T02:33:49;93681.25;;;15.54;55.46
76086;BME280;64791;0.000;0.000;2023-07-29T02:36:16;93692.66;;;15.49;55.71
76086;BME280;64791;0.000;0.000;2023-07-29T02:38:42;93682.53;;;15.34;56.24
76086;BME280;64791;0.000;0.000;2023-07-29T02:41:08;93688.28;;;15.36;56.31
76086;BME280;64791;0.000;0.000;2023-07-29T02:43:38;93683.28;;;15.35;56.51
76086;BME280;64791;0.000;0.000;2023-07-29T02:46:03;93679.31;;;15.47;56.03
76086;BME280;64791;0.000;0.000;2023-07-29T02:48:29;93676.84;;;15.42;56.42
76086;BME280;64791;0.000;0.000;2023-07-29T02:50:55;93681.53;;;15.39;56.52
76086;BME280;64791;0.000;0.000;2023-07-29T02:53:21;93679.50;;;15.78;56.03
76086;BME280;64791;0.000;0.000;2023-07-29T02:55:48;93671.66;;;16.05;55.45
76086;BME280;64791;0.000;0.000;2023-07-29T02:58:13;93678.78;;;16.27;54.74
76086;BME280;64791;0.000;0.000;2023-07-29T03:00:39;93679.22;;;16.33;53.84
76086;BME280;64791;0.000;0.000;2023-07-29T03:03:10;93678.31;;;16.40;53.88
76086;BME280;64791;0.000;0.000;2023-07-29T03:05:35;93687.59;;;16.24;53.87
76086;BME280;64791;0.000;0.000;2023-07-29T03:08:02;93684.84;;;16.14;54.44
76086;BME280;64791;0.000;0.000;2023-07-29T03:10:28;93687.66;;;16.05;54.36
76086;BME280;64791;0.000;0.000;2023-07-29T03:12:54;93693.78;;;16.03;54.49
76086;BME280;64791;0.000;0.000;2023-07-29T03:15:23;93695.72;;;15.81;55.31
76086;BME280;64791;0.000;0.000;2023-07-29T03:17:49;93701.91;;;15.61;56.23
76086;BME280;64791;0.000;0.000;2023-07-29T03:20:14;93710.19;;;15.42;56.79
76086;BME280;64791;0.000;0.000;2023-07-29T03:22:40;93707.72;;;15.36;57.68
76086;BME280;64791;0.000;0.000;2023-07-29T03:25:06;93709.03;;;15.45;56.67
76086;BME280;64791;0.000;0.000;2023-07-29T03:27:31;93705.81;;;15.39;57.22
76086;BME280;64791;0.000;0.000;2023-07-29T03:29:57;93711.50;;;15.41;57.73
76086;BME280;64791;0.000;0.000;2023-07-29T03:32:23;93713.41;;;15.29;57.16
76086;BME280;64791;0.000;0.000;2023-07-29T03:34:48;93710.75;;;15.11;58.08
76086;BME280;64791;0.000;0.000;2023-07-29T03:37:14;93706.53;;;15.20;58.16
76086;BME280;64791;0.000;0.000;2023-07-29T03:39:39;93707.25;;;15.21;58.87
76086;BME280;64791;0.000;0.000;2023-07-29T03:42:05;93709.75;;;15.17;58.55
76086;BME280;64791;0.000;0.000;2023-07-29T03:44:31;93702.16;;;15.36;57.99
76086;BME280;64791;0.000;0.000;2023-07-29T03:46:57;93706.09;;;15.33;58.61
76086;BME280;64791;0.000;0.000;2023-07-29T03:49:22;93706.41;;;15.47;58.79
76086;BME280;64791;0.000;0.000;2023-07-29T03:51:48;93709.63;;;15.43;58.65
76086;BME280;64791;0.000;0.000;2023-07-29T03:54:13;93707.72;;;15.36;59.06
76086;BME280;64791;0.000;0.000;2023-07-29T03:56:39;93713.25;;;15.27;59.45
76086;BME280;64791;0.000;0.000;2023-07-29T03:59:05;93709.59;;;15.24;59.88
76086;BME280;64791;0.000;0.000;2023-07-29T04:01:31;93710.78;;;15.31;59.84
76086;BME280;64791;0.000;0.000;2023-07-29T04:03:58;93703.16;;;15.22;60.36
76086;BME280;64791;0.000;0.000;2023-07-29T04:06:23;93706.38;;;15.18;60.96
76086;BME280;64791;0.000;0.000;2023-07-29T04:08:49;93699.22;;;15.25;61.35
76086;BME280;64791;0.000;0.000;2023-07-29T04:11:14;93712.41;;;15.34;61.38
76086;BME280;64791;0.000;0.000;2023-07-29T04:13:40;93720.91;;;15.64;61.53
76086;BME280;64791;0.000;0.000;2023-07-29T04:16:06;93718.00;;;15.72;60.92
76086;BME280;64791;0.000;0.000;2023-07-29T04:18:32;93713.03;;;15.70;60.63
76086;BME280;64791;0.000;0.000;2023-07-29T04:20:58;93709.50;;;15.79;60.38
76086;BME280;64791;0.000;0.000;2023-07-29T04:23:23;93704.53;;;15.88;61.16
76086;BME280;64791;0.000;0.000;2023-07-29T04:25:49;93707.00;;;15.93;60.82
76086;BME280;64791;0.000;0.000;2023-07-29T04:28:15;93711.06;;;16.02;61.83
76086;BME280;64791;0.000;0.000;2023-07-29T04:30:41;93711.31;;;16.25;62.07
76086;BME280;64791;0.000;0.000;2023-07-29T04:33:06;93714.06;;;16.53;62.36
76086;BME280;64791;0.000;0.000;2023-07-29T04:35:32;93718.22;;;16.74;62.07
76086;BME280;64791;0.000;0.000;2023-07-29T04:37:58;93709.44;;;16.98;61.48
76086;BME280;64791;0.000;0.000;2023-07-29T04:40:23;93717.97;;;17.21;60.59
76086;BME280;64791;0.000;0.000;2023-07-29T04:42:49;93708.91;;;17.21;58.57
76086;BME280;64791;0.000;0.000;2023-07-29T04:45:15;93722.72;;;17.40;59.08
76086;BME280;64791;0.000;0.000;2023-07-29T04:47:41;93716.38;;;17.82;59.89
76086;BME280;64791;0.000;0.000;2023-07-29T04:50:07;93714.34;;;18.27;57.19
76086;BME280;64791;0.000;0.000;2023-07-29T04:52:32;93705.34;;;18.72;55.86
76086;BME280;64791;0.000;0.000;2023-07-29T04:54:58;93714.34;;;18.94;55.34
76086;BME280;64791;0.000;0.000;2023-07-29T04:57:24;93714.59;;;19.21;54.18
76086;BME280;64791;0.000;0.000;2023-07-29T04:59:49;93718.59;;;19.41;52.37
76086;BME280;64791;0.000;0.000;2023-07-29T05:02:15;93718.75;;;19.80;52.08
76086;BME280;64791;0.000;0.000;2023-07-29T05:04:40;93718.78;;;20.05;51.16
76086;BME280;64791;0.000;0.000;2023-07-29T05:07:06;93720.47;;;20.35;50.05
76086;BME280;64791;0.000;0.000;2023-07-29T05:09:31;93728.19;;;20.49;49.01
76086;BME280;64791;0.000;0.000;2023-07-29T05:11:58;93729.38;;;20.57;49.38
76086;BME280;64791;0.000;0.000;2023-07-29T05:14:23;93735.13;;;20.73;49.67
76086;BME280;64791;0.000;0.000;2023-07-29T05:16:49;93735.16;;;20.86;48.83
76086;BME280;64791;0.000;0.000;2023-07-29T05:19:14;93733.19;;;20.89;47.09
76086;BME280;64791;0.000;0.000;2023-07-29T05:21:40;93734.88;;;20.94;47.50
76086;BME280;64791;0.000;0.000;2023-07-29T05:24:06;93740.50;;;20.94;46.05
76086;BME280;64791;0.000;0.000;2023-07-29T05:26:32;93733.00;;;21.12;45.76
76086;BME280;64791;0.000;0.000;2023-07-29T05:28:58;93732.94;;;21.24;45.60
76086;BME280;64791;0.000;0.000;2023-07-29T05:31:23;93733.66;;;21.38;46.70
76086;BME280;64791;0.000;0.000;2023-07-29T05:33:49;93737.28;;;21.54;45.64
76086;BME280;64791;0.000;0.000;2023-07-29T05:36:14;93741.47;;;21.66;45.91
76086;BME280;64791;0.000;0.000;2023-07-29T05:38:41;93740.28;;;21.85;46.33
76086;BME280;64791;0.000;0.000;2023-07-29T05:41:06;93736.91;;;22.02;45.40
76086;BME280;64791;0.000;0.000;2023-07-29T05:43:32;93738.47;;;22.19;44.45
76086;BME280;64791;0.000;0.000;2023-07-29T05:45:58;93740.06;;;22.37;43.91
76086;BME280;64791;0.000;0.000;2023-07-29T05:48:23;93747.53;;;22.46;43.32
76086;BME280;64791;0.000;0.000;2023-07-29T05:50:49;93746.47;;;22.53;44.00
76086;BME280;64791;0.000;0.000;2023-07-29T05:53:15;93748.06;;;22.72;43.13
76086;BME280;64791;0.000;0.000;2023-07-29T05:55:41;93748.69;;;22.86;42.91
76086;BME280;64791;0.000;0.000;2023-07-29T05:58:07;93750.88;;;23.03;43.02
76086;BME280;64791;0.000;0.000;2023-07-29T06:00:32;93754.75;;;23.25;42.47
76086;BME280;64791;0.000;0.000;2023-07-29T06:02:59;93751.34;;;23.60;41.87
76086;BME280;64791;0.000;0.000;2023-07-29T06:05:25;93751.25;;;23.74;42.38
76086;BME280;64791;0.000;0.000;2023-07-29T06:07:51;93755.50;;;23.90;40.21
76086;BME280;64791;0.000;0.000;2023-07-29T06:10:17;93751.66;;;23.99;41.43
76086;BME280;64791;0.000;0.000;2023-07-29T06:12:45;93753.28;;;24.22;41.04
76086;BME280;64791;0.000;0.000;2023-07-29T06:15:11;93749.09;;;24.41;39.97
76086;BME280;64791;0.000;0.000;2023-07-29T06:17:37;93743.09;;;24.48;38.50
76086;BME280;64791;0.000;0.000;2023-07-29T06:20:03;93748.41;;;24.58;39.44
76086;BME280;64791;0.000;0.000;2023-07-29T06:22:29;93742.09;;;24.95;37.71
76086;BME280;64791;0.000;0.000;2023-07-29T06:24:55;93744.59;;;24.86;38.14
76086;BME280;64791;0.000;0.000;2023-07-29T06:27:20;93746.75;;;25.06;39.01
76086;BME280;64791;0.000;0.000;2023-07-29T06:29:46;93742.25;;;25.36;38.41
76086;BME280;64791;0.000;0.000;2023-07-29T06:32:12;93732.34;;;25.74;36.71
76086;BME280;64791;0.000;0.000;2023-07-29T06:34:37;93741.81;;;25.83;37.80
76086;BME280;64791;0.000;0.000;2023-07-29T06:37:03;93735.50;;;26.25;36.05
76086;BME280;64791;0.000;0.000;2023-07-29T06:39:28;93731.34;;;26.48;35.77
76086;BME280;64791;0.000;0.000;2023-07-29T06:41:54;93739.16;;;26.50;36.26
76086;BME280;64791;0.000;0.000;2023-07-29T06:44:20;93739.16;;;26.95;34.52
76086;BME280;64791;0.000;0.000;2023-07-29T06:46:46;93729.97;;;27.18;33.15
76086;BME280;64791;0.000;0.000;2023-07-29T06:49:11;93727.59;;;27.08;33.89
76086;BME280;64791;0.000;0.000;2023-07-29T06:51:37;93728.03;;;27.48;33.41
76086;BME280;64791;0.000;0.000;2023-07-29T06:54:03;93727.31;;;27.73;33.38
76086;BME280;64791;0.000;0.000;2023-07-29T06:56:28;93722.47;;;28.04;32.61
76086;BME280;64791;0.000;0.000;2023-07-29T06:58:54;93722.91;;;28.47;31.96
76086;BME280;64791;0.000;0.000;2023-07-29T07:01:20;93723.28;;;28.34;32.14
76086;BME280;64791;0.000;0.000;2023-07-29T07:03:47;93709.69;;;28.88;30.47
76086;BME280;64791;0.000;0.000;2023-07-29T07:06:12;93707.94;;;29.04;31.67
76086;BME280;64791;0.000;0.000;2023-07-29T07:08:38;93713.03;;;29.10;30.92
76086;BME280;64791;0.000;0.000;2023-07-29T07:11:03;93711.16;;;29.22;29.48
76086;BME280;64791;0.000;0.000;2023-07-29T07:13:29;93700.63;;;29.63;29.53
76086;BME280;64791;0.000;0.000;2023-07-29T07:15:55;93711.16;;;29.90;27.95
76086;BME280;64791;0.000;0.000;2023-07-29T07:18:20;93704.53;;;30.17;28.14
76086;BME280;64791;0.000;0.000;2023-07-29T07:20:49;93711.63;;;30.16;28.33
76086;BME280;64791;0.000;0.000;2023-07-29T07:23:15;93713.22;;;30.25;29.04
76086;BME280;64791;0.000;0.000;2023-07-29T07:25:41;93716.84;;;30.69;27.87
76086;BME280;64791;0.000;0.000;2023-07-29T07:28:08;93705.72;;;30.88;27.04
76086;BME280;64791;0.000;0.000;2023-07-29T07:30:33;93722.13;;;30.89;28.16
76086;BME280;64791;0.000;0.000;2023-07-29T07:32:59;93716.59;;;30.55;27.38
76086;BME280;64791;0.000;0.000;2023-07-29T07:35:25;93717.44;;;30.64;28.13
76086;BME280;64791;0.000;0.000;2023-07-29T07:37:51;93711.88;;;30.72;28.34
76086;BME280;64791;0.000;0.000;2023-07-29T07:40:16;93711.75;;;31.08;27.79
76086;BME280;64791;0.000;0.000;2023-07-29T07:42:42;93718.84;;;31.59;26.56
76086;BME280;64791;0.000;0.000;2023-07-29T07:45:08;93719.22;;;31.91;26.21
76086;BME280;64791;0.000;0.000;2023-07-29T07:47:34;93716.00;;;31.59;27.37
76086;BME280;64791;0.000;0.000;2023-07-29T07:50:00;93723.13;;;31.58;27.47
76086;BME280;64791;0.000;0.000;2023-07-29T07:52:25;93715.63;;;31.86;26.44
76086;BME280;64791;0.000;0.000;2023-07-29T07:54:52;93725.63;;;31.87;26.53
76086;BME280;64791;0.000;0.000;2023-07-29T07:57:18;93709.34;;;31.40;25.37
76086;BME280;64791;0.000;0.000;2023-07-29T07:59:44;93719.81;;;31.23;27.64
76086;BME280;64791;0.000;0.000;2023-07-29T08:02:10;93722.06;;;31.89;27.08
76086;BME280;64791;0.000;0.000;2023-07-29T08:04:36;93718.94;;;32.27;25.22
76086;BME280;64791;0.000;0.000;2023-07-29T08:07:01;93717.59;;;32.36;24.98
76086;BME280;64791;0.000;0.000;2023-07-29T08:09:27;93709.16;;;32.50;25.02
76086;BME280;64791;0.000;0.000;2023-07-29T08:11:53;93704.75;;;32.37;24.25
76086;BME280;64791;0.000;0.000;2023-07-29T08:14:18;93704.13;;;32.48;24.43
76086;BME280;64791;0.000;0.000;2023-07-29T08:16:44;93710.88;;;32.07;23.37
76086;BME280;64791;0.000;0.000;2023-07-29T08:19:10;93708.69;;;32.01;26.00
76086;BME280;64791;0.000;0.000;2023-07-29T08:21:35;93712.19;;;32.70;24.20
76086;BME280;64791;0.000;0.000;2023-07-29T08:24:01;93707.41;;;32.96;23.22
76086;BME280;64791;0.000;0.000;2023-07-29T08:26:27;93716.81;;;33.11;24.56
76086;BME280;64791;0.000;0.000;2023-07-29T08:28:53;93708.34;;;33.29;24.28
76086;BME280;64791;0.000;0.000;2023-07-29T08:31:18;93708.59;;;33.78;23.37
76086;BME280;64791;0.000;0.000;2023-07-29T08:33:44;93707.22;;;33.89;22.18
76086;BME280;64791;0.000;0.000;2023-07-29T08:36:10;93713.78;;;34.17;23.80
76086;BME280;64791;0.000;0.000;2023-07-29T08:38:35;93707.34;;;34.29;22.81
76086;BME280;64791;0.000;0.000;2023-07-29T08:43:39;93700.19;;;34.22;21.95
76086;BME280;64791;0.000;0.000;2023-07-29T08:46:08;93699.44;;;34.13;21.84
76086;BME280;64791;0.000;0.000;2023-07-29T08:48:43;93686.47;;;33.94;23.22
76086;BME280;64791;0.000;0.000;2023-07-29T08:51:09;93693.00;;;34.31;21.59
76086;BME280;64791;0.000;0.000;2023-07-29T08:53:35;93688.06;;;34.48;20.69
76086;BME280;64791;0.000;0.000;2023-07-29T08:56:02;93686.50;;;33.98;21.56
76086;BME280;64791;0.000;0.000;2023-07-29T08:58:27;93690.81;;;34.01;23.03
76086;BME280;64791;0.000;0.000;2023-07-29T09:00:54;93693.06;;;34.51;22.27
76086;BME280;64791;0.000;0.000;2023-07-29T09:03:20;93680.19;;;34.56;21.28
76086;BME280;64791;0.000;0.000;2023-07-29T09:05:46;93680.88;;;34.93;20.01
76086;BME280;64791;0.000;0.000;2023-07-29T09:08:11;93677.97;;;34.18;20.65
76086;BME280;64791;0.000;0.000;2023-07-29T09:10:37;93681.44;;;33.89;21.94
76086;BME280;64791;0.000;0.000;2023-07-29T09:13:03;93670.81;;;34.33;20.74
76086;BME280;64791;0.000;0.000;2023-07-29T09:15:30;93678.00;;;34.30;21.50
76086;BME280;64791;0.000;0.000;2023-07-29T09:17:56;93667.97;;;34.43;21.49
76086;BME280;64791;0.000;0.000;2023-07-29T09:20:23;93674.47;;;34.56;20.72
76086;BME280;64791;0.000;0.000;2023-07-29T09:22:49;93671.56;;;34.72;20.80
76086;BME280;64791;0.000;0.000;2023-07-29T09:25:15;93675.16;;;34.73;21.01
76086;BME280;64791;0.000;0.000;2023-07-29T09:27:42;93670.81;;;35.18;20.64
76086;BME280;64791;0.000;0.000;2023-07-29T09:30:15;93664.38;;;35.13;18.79
76086;BME280;64791;0.000;0.000;2023-07-29T09:32:41;93667.97;;;34.72;20.79
76086;BME280;64791;0.000;0.000;2023-07-29T09:35:10;93660.09;;;34.88;20.60
76086;BME280;64791;0.000;0.000;2023-07-29T09:37:37;93656.53;;;34.96;20.29
76086;BME280;64791;0.000;0.000;2023-07-29T09:40:03;93662.84;;;35.41;18.96
76086;BME280;64791;0.000;0.000;2023-07-29T09:42:29;93657.97;;;34.69;19.17
76086;BME280;64791;0.000;0.000;2023-07-29T09:44:54;93652.91;;;34.33;19.97
76086;BME280;64791;0.000;0.000;2023-07-29T09:47:24;93648.66;;;34.52;19.30
76086;BME280;64791;0.000;0.000;2023-07-29T09:49:51;93653.66;;;34.58;20.82
76086;BME280;64791;0.000;0.000;2023-07-29T09:52:18;93652.19;;;35.11;20.02
76086;BME280;64791;0.000;0.000;2023-07-29T09:54:44;93646.38;;;35.43;17.75
76086;BME280;64791;0.000;0.000;2023-07-29T09:57:13;93649.28;;;35.29;19.75
76086;BME280;64791;0.000;0.000;2023-07-29T09:59:39;93640.59;;;35.55;18.41
76086;BME280;64791;0.000;0.000;2023-07-29T10:02:07;93637.63;;;35.77;17.17
76086;BME280;64791;0.000;0.000;2023-07-29T10:04:36;93644.78;;;35.88;16.85
76086;BME280;64791;0.000;0.000;2023-07-29T10:07:02;93638.38;;;35.74;16.44
76086;BME280;64791;0.000;0.000;2023-07-29T10:09:28;93633.41;;;35.58;16.98
76086;BME280;64791;0.000;0.000;2023-07-29T10:11:54;93632.88;;;34.83;18.05
76086;BME280;64791;0.000;0.000;2023-07-29T10:14:20;93635.72;;;34.87;17.22
76086;BME280;64791;0.000;0.000;2023-07-29T10:16:46;93637.13;;;35.18;17.51
76086;BME280;64791;0.000;0.000;2023-07-29T10:19:11;93635.63;;;35.38;18.96
76086;BME280;64791;0.000;0.000;2023-07-29T10:21:39;93626.19;;;35.69;17.54
76086;BME280;64791;0.000;0.000;2023-07-29T10:24:11;93627.59;;;35.76;17.63
76086;BME280;64791;0.000;0.000;2023-07-29T10:26:40;93621.66;;;36.11;18.09
76086;BME280;64791;0.000;0.000;2023-07-29T10:29:10;93619.34;;;36.35;18.48
76086;BME280;64791;0.000;0.000;2023-07-29T10:31:38;93614.34;;;36.30;17.73
76086;BME280;64791;0.000;0.000;2023-07-29T10:34:05;93601.59;;;36.05;15.38
76086;BME280;64791;0.000;0.000;2023-07-29T10:36:32;93603.97;;;35.62;18.08
76086;BME280;64791;0.000;0.000;2023-07-29T10:38:58;93585.44;;;35.29;16.67
76086;BME280;64791;0.000;0.000;2023-07-29T10:41:23;93584.03;;;35.19;18.73
76086;BME280;64791;0.000;0.000;2023-07-29T10:44:35;93593.16;;;35.66;17.65
76086;BME280;64791;0.000;0.000;2023-07-29T10:46:55;93589.94;;;36.25;16.79
76086;BME280;64791;0.000;0.000;2023-07-29T10:49:22;93584.84;;;36.35;16.72
76086;BME280;64791;0.000;0.000;2023-07-29T10:51:48;93585.03;;;36.13;17.34
76086;BME280;64791;0.000;0.000;2023-07-29T10:54:14;93581.06;;;36.59;16.50
76086;BME280;64791;0.000;0.000;2023-07-29T10:56:41;93575.13;;;36.81;16.04
76086;BME280;64791;0.000;0.000;2023-07-29T11:01:42;93569.53;;;36.61;18.21
76086;BME280;64791;0.000;0.000;2023-07-29T11:14:57;93566.72;;;36.55;16.73
76086;BME280;64791;0.000;0.000;2023-07-29T11:17:25;93565.81;;;36.75;16.97
76086;BME280;64791;0.000;0.000;2023-07-29T11:19:51;93562.81;;;36.89;16.39
76086;BME280;64791;0.000;0.000;2023-07-29T11:22:17;93559.59;;;37.19;14.84
76086;BME280;64791;0.000;0.000;2023-07-29T11:24:42;93560.53;;;37.01;17.43
76086;BME280;64791;0.000;0.000;2023-07-29T11:27:11;93554.69;;;37.09;15.65
76086;BME280;64791;0.000;0.000;2023-07-29T11:29:37;93558.66;;;37.38;16.17
76086;BME280;64791;0.000;0.000;2023-07-29T11:32:02;93555.41;;;37.08;15.54
76086;BME280;64791;0.000;0.000;2023-07-29T11:34:31;93554.94;;;36.87;15.93
76086;BME280;64791;0.000;0.000;2023-07-29T11:36:57;93544.22;;;36.78;16.21
76086;BME280;64791;0.000;0.000;2023-07-29T11:39:23;93550.53;;;36.94;17.25
76086;BME280;64791;0.000;0.000;2023-07-29T11:41:49;93546.56;;;37.28;15.89
76086;BME280;64791;0.000;0.000;2023-07-29T11:44:17;93547.13;;;36.74;16.32
76086;BME280;64791;0.000;0.000;2023-07-29T11:46:43;93537.16;;;37.31;15.71
76086;BME280;64791;0.000;0.000;2023-07-29T11:49:09;93537.53;;;37.01;15.40
76086;BME280;64791;0.000;0.000;2023-07-29T11:51:36;93539.72;;;36.99;15.90
76086;BME280;64791;0.000;0.000;2023-07-29T11:54:01;93535.47;;;36.92;16.74
76086;BME280;64791;0.000;0.000;2023-07-29T11:56:27;93536.19;;;36.92;17.22
76086;BME280;64791;0.000;0.000;2023-07-29T11:58:54;93532.22;;;36.57;16.42
76086;BME280;64791;0.000;0.000;2023-07-29T12:01:20;93532.72;;;36.82;16.74
76086;BME280;64791;0.000;0.000;2023-07-29T12:03:47;93523.50;;;37.30;16.21
76086;BME280;64791;0.000;0.000;2023-07-29T12:06:14;93525.28;;;37.60;16.04
76086;BME280;64791;0.000;0.000;2023-07-29T12:08:40;93522.25;;;37.72;15.93
76086;BME280;64791;0.000;0.000;2023-07-29T12:11:08;93508.06;;;37.56;15.17
76086;BME280;64791;0.000;0.000;2023-07-29T12:13:33;93518.66;;;37.14;15.58
76086;BME280;64791;0.000;0.000;2023-07-29T12:16:02;93509.72;;;36.78;16.46
76086;BME280;64791;0.000;0.000;2023-07-29T12:18:32;93502.91;;;37.09;16.21
76086;BME280;64791;0.000;0.000;2023-07-29T12:20:58;93505.97;;;36.93;16.57
76086;BME280;64791;0.000;0.000;2023-07-29T12:23:25;93499.00;;;37.35;16.37
76086;BME280;64791;0.000;0.000;2023-07-29T12:25:57;93495.22;;;37.47;16.41
76086;BME280;64791;0.000;0.000;2023-07-29T12:28:24;93496.00;;;37.43;17.09
76086;BME280;64791;0.000;0.000;2023-07-29T12:30:56;93496.22;;;37.23;17.27
76086;BME280;64791;0.000;0.000;2023-07-29T12:33:32;93497.22;;;37.03;16.59
76086;BME280;64791;0.000;0.000;2023-07-29T12:35:58;93490.66;;;37.11;16.63
76086;BME280;64791;0.000;0.000;2023-07-29T12:38:27;93490.94;;;36.87;17.41
76086;BME280;64791;0.000;0.000;2023-07-29T12:40:52;93494.78;;;37.26;16.73
76086;BME280;64791;0.000;0.000;2023-07-29T12:43:18;93493.09;;;37.45;17.14
76086;BME280;64791;0.000;0.000;2023-07-29T12:45:44;93492.75;;;37.71;15.88
76086;BME280;64791;0.000;0.000;2023-07-29T12:48:10;93497.84;;;37.65;16.39
76086;BME280;64791;0.000;0.000;2023-07-29T12:50:36;93492.81;;;37.10;15.63
76086;BME280;64791;0.000;0.000;2023-07-29T12:53:02;93504.63;;;36.84;16.21
76086;BME280;64791;0.000;0.000;2023-07-29T12:55:28;93492.00;;;36.53;16.64
76086;BME280;64791;0.000;0.000;2023-07-29T12:57:53;93491.25;;;36.56;16.44
76086;BME280;64791;0.000;0.000;2023-07-29T13:00:19;93493.91;;;36.00;17.36
76086;BME280;64791;0.000;0.000;2023-07-29T13:02:45;93487.78;;;35.55;16.76
76086;BME280;64791;0.000;0.000;2023-07-29T13:05:10;93501.47;;;35.44;17.19
76086;BME280;64791;0.000;0.000;2023-07-29T13:07:39;93493.59;;;35.35;17.55
76086;BME280;64791;0.000;0.000;2023-07-29T13:10:05;93500.03;;;35.43;17.73
76086;BME280;64791;0.000;0.000;2023-07-29T13:12:31;93498.38;;;35.76;15.98
76086;BME280;64791;0.000;0.000;2023-07-29T13:14:57;93498.50;;;35.58;17.07
76086;BME280;64791;0.000;0.000;2023-07-29T13:17:22;93501.91;;;35.85;16.05
76086;BME280;64791;0.000;0.000;2023-07-29T13:19:48;93507.63;;;35.91;17.12
76086;BME280;64791;0.000;0.000;2023-07-29T13:22:14;93496.16;;;35.85;16.39
76086;BME280;64791;0.000;0.000;2023-07-29T13:24:40;93494.81;;;35.74;16.63